createdAt,value
2023-07-27T00:01:05.194Z,100425.03
2023-07-27T00:03:33.521Z,100433.28
2023-07-27T00:06:02.826Z,100437.75
2023-07-27T00:08:31.031Z,100439.69
2023-07-27T00:10:59.077Z,100448.63
2023-07-27T00:13:27.009Z,100447.97
2023-07-27T00:15:54.970Z,100434.16
2023-07-27T00:18:22.908Z,100431.22
2023-07-27T00:20:50.977Z,100436.56
2023-07-27T00:23:20.321Z,100434.22
2023-07-27T00:25:48.378Z,100427.84
2023-07-27T00:28:16.417Z,100420.50
2023-07-27T00:30:44.365Z,100415.34
2023-07-27T00:33:12.421Z,100422.50
2023-07-27T00:35:40.410Z,100411.56
2023-07-27T00:38:08.404Z,100413.97
2023-07-27T00:40:37.775Z,100410.28
2023-07-27T00:43:05.799Z,100407.81
2023-07-27T00:45:34.053Z,100408.09
2023-07-27T00:48:02.185Z,100408.97
2023-07-27T00:50:31.166Z,100408.28
2023-07-27T00:52:59.966Z,100401.09
2023-07-27T00:55:28.062Z,100405.03
2023-07-27T00:57:57.426Z,100390.03
2023-07-27T01:00:25.454Z,100381.69
2023-07-27T01:02:53.502Z,100365.25
2023-07-27T01:05:21.668Z,100385.28
2023-07-27T01:07:49.638Z,100386.38
2023-07-27T01:10:17.940Z,100389.16
2023-07-27T01:12:50.840Z,100380.56
2023-07-27T01:15:26.931Z,100363.16
2023-07-27T01:18:00.465Z,100375.56
2023-07-27T01:20:35.579Z,100374.75
2023-07-27T01:23:39.228Z,100353.63
2023-07-27T01:26:36.598Z,100337.97
2023-07-27T01:29:10.838Z,100350.09
2023-07-27T01:31:43.775Z,100355.09
2023-07-27T01:34:17.860Z,100362.69
2023-07-27T01:36:49.963Z,100358.06
2023-07-27T01:39:21.137Z,100337.59
2023-07-27T01:41:50.237Z,100334.66
2023-07-27T01:44:19.184Z,100340.50
2023-07-27T01:46:48.907Z,100335.84
2023-07-27T01:49:18.212Z,100327.84
2023-07-27T01:51:47.490Z,100317.44
2023-07-27T01:54:16.198Z,100339.47
2023-07-27T01:56:46.834Z,100339.13
2023-07-27T01:59:15.445Z,100330.50
2023-07-27T02:01:44.821Z,100321.91
2023-07-27T02:04:16.026Z,100326.22
2023-07-27T02:06:44.024Z,100320.19
2023-07-27T02:09:12.009Z,100317.69
2023-07-27T02:11:44.901Z,100311.44
2023-07-27T02:14:27.646Z,100310.38
2023-07-27T02:16:58.688Z,100273.03
2023-07-27T02:19:31.641Z,100307.47
2023-07-27T02:22:00.716Z,100302.44
2023-07-27T02:24:29.026Z,100297.47
2023-07-27T02:26:58.023Z,100294.78
2023-07-27T02:29:26.141Z,100300.56
2023-07-27T02:31:54.208Z,100284.38
2023-07-27T02:34:22.212Z,100306.09
2023-07-27T02:36:51.563Z,100301.00
2023-07-27T02:39:19.621Z,100295.75
2023-07-27T02:41:47.548Z,100298.59
2023-07-27T02:44:20.455Z,100294.19
2023-07-27T02:46:49.828Z,100280.63
2023-07-27T02:49:17.882Z,100276.81
2023-07-27T02:51:46.295Z,100282.00
2023-07-27T02:54:15.816Z,100279.41
2023-07-27T02:56:43.805Z,100275.94
2023-07-27T02:59:11.772Z,100263.22
2023-07-27T03:01:44.855Z,100272.69
2023-07-27T03:04:18.952Z,100280.78
2023-07-27T03:06:47.099Z,100267.03
2023-07-27T03:09:16.928Z,100265.97
2023-07-27T03:11:44.942Z,100264.44
2023-07-27T03:14:12.946Z,100261.69
2023-07-27T03:16:41.134Z,100254.78
2023-07-27T03:19:09.956Z,100251.19
2023-07-27T03:21:38.138Z,100252.22
2023-07-27T03:24:06.539Z,100251.03
2023-07-27T03:26:36.236Z,100242.25
2023-07-27T03:29:04.465Z,100228.31
2023-07-27T03:31:32.492Z,100235.97
2023-07-27T03:34:00.459Z,100237.00
2023-07-27T03:36:28.444Z,100247.06
2023-07-27T03:38:56.423Z,100227.97
2023-07-27T03:41:24.396Z,100237.00
2023-07-27T03:43:53.859Z,100213.34
2023-07-27T03:46:22.314Z,100219.09
2023-07-27T03:48:51.119Z,100216.84
2023-07-27T03:51:19.359Z,100205.59
2023-07-27T03:53:47.372Z,100225.00
2023-07-27T03:56:15.393Z,100215.78
2023-07-27T03:58:43.346Z,100209.13
2023-07-27T04:01:12.703Z,100203.03
2023-07-27T04:03:40.770Z,100197.72
2023-07-27T04:06:08.702Z,100200.97
2023-07-27T04:08:36.701Z,100196.84
2023-07-27T04:11:04.647Z,100190.69
2023-07-27T04:13:32.597Z,100198.81
2023-07-27T04:16:00.618Z,100174.47
2023-07-27T04:18:30.021Z,100198.16
2023-07-27T04:20:58.039Z,100167.81
2023-07-27T04:23:26.796Z,100196.78
2023-07-27T04:25:54.829Z,100190.88
2023-07-27T04:28:23.497Z,100187.47
2023-07-27T04:30:51.516Z,100164.88
2023-07-27T04:33:19.512Z,100190.22
2023-07-27T04:35:48.836Z,100180.78
2023-07-27T04:38:16.823Z,100142.88
2023-07-27T04:40:44.885Z,100178.31
2023-07-27T04:43:13.272Z,100174.56
2023-07-27T04:45:41.294Z,100175.72
2023-07-27T04:48:09.388Z,100169.22
2023-07-27T04:50:37.819Z,100166.63
2023-07-27T04:53:07.272Z,100175.69
2023-07-27T04:55:35.267Z,100157.94
2023-07-27T04:58:03.473Z,100166.31
2023-07-27T05:00:31.636Z,100147.41
2023-07-27T05:03:00.352Z,100160.38
2023-07-27T05:05:28.463Z,100163.44
2023-07-27T05:07:56.431Z,100161.22
2023-07-27T05:10:25.999Z,100162.06
2023-07-27T05:12:53.961Z,100166.84
2023-07-27T05:15:21.882Z,100154.41
2023-07-27T05:17:49.936Z,100173.41
2023-07-27T05:20:17.954Z,100171.97
2023-07-27T05:22:45.948Z,100175.59
2023-07-27T05:25:15.123Z,100136.88
2023-07-27T05:27:44.447Z,100183.63
2023-07-27T05:30:13.336Z,100180.16
2023-07-27T05:32:41.373Z,100183.25
2023-07-27T05:35:09.835Z,100190.22
2023-07-27T05:37:37.778Z,100191.09
2023-07-27T05:40:07.115Z,100188.81
2023-07-27T05:42:35.097Z,100184.81
2023-07-27T05:45:04.632Z,100176.44
2023-07-27T05:47:32.762Z,100166.31
2023-07-27T05:50:00.878Z,100148.56
2023-07-27T05:52:28.847Z,100162.09
2023-07-27T05:54:56.827Z,100172.31
2023-07-27T05:57:25.012Z,100175.81
2023-07-27T06:00:05.254Z,100168.56
2023-07-27T06:02:36.759Z,100176.94
2023-07-27T06:05:05.946Z,100176.00
2023-07-27T06:07:33.967Z,100183.81
2023-07-27T06:10:02.096Z,100174.19
2023-07-27T06:12:30.126Z,100176.53
2023-07-27T06:14:58.237Z,100172.91
2023-07-27T06:17:26.894Z,100173.47
2023-07-27T06:19:56.334Z,100172.28
2023-07-27T06:22:24.388Z,100160.09
2023-07-27T06:24:52.349Z,100173.81
2023-07-27T06:27:20.367Z,100163.22
2023-07-27T06:29:48.299Z,100159.31
2023-07-27T06:32:16.504Z,100162.34
2023-07-27T06:34:44.553Z,100150.34
2023-07-27T06:37:13.864Z,100156.78
2023-07-27T06:39:42.940Z,100150.38
2023-07-27T06:42:17.490Z,100146.66
2023-07-27T06:44:45.760Z,100131.44
2023-07-27T06:47:13.814Z,100138.94
2023-07-27T06:49:41.816Z,100150.22
2023-07-27T06:52:10.605Z,100152.38
2023-07-27T06:54:40.925Z,100154.50
2023-07-27T06:57:11.459Z,100124.06
2023-07-27T06:59:39.753Z,100117.84
2023-07-27T07:02:08.188Z,100146.16
2023-07-27T07:04:38.542Z,100140.38
2023-07-27T07:07:09.070Z,100150.84
2023-07-27T07:09:37.547Z,100152.38
2023-07-27T07:12:10.014Z,100152.81
2023-07-27T07:14:38.098Z,100128.38
2023-07-27T07:17:08.521Z,100116.25
2023-07-27T07:19:36.689Z,100149.13
2023-07-27T07:22:05.498Z,100138.97
2023-07-27T07:24:33.905Z,100144.19
2023-07-27T07:27:02.097Z,100129.84
2023-07-27T07:29:31.646Z,100147.22
2023-07-27T07:31:59.674Z,100124.47
2023-07-27T07:34:27.739Z,100140.38
2023-07-27T07:36:58.044Z,100135.19
2023-07-27T07:39:26.302Z,100137.03
2023-07-27T07:41:54.330Z,100136.38
2023-07-27T07:44:22.357Z,100133.47
2023-07-27T07:46:55.848Z,100119.03
2023-07-27T07:49:26.845Z,100128.00
2023-07-27T07:51:54.933Z,100091.25
2023-07-27T07:54:22.883Z,100119.13
2023-07-27T07:56:53.908Z,100091.72
2023-07-27T07:59:21.878Z,100113.34
2023-07-27T08:01:51.596Z,100065.66
2023-07-27T08:04:20.158Z,100106.06
2023-07-27T08:06:50.732Z,100107.25
2023-07-27T08:09:18.978Z,100078.88
2023-07-27T08:11:47.012Z,100067.22
2023-07-27T08:14:15.080Z,100084.44
2023-07-27T08:16:43.347Z,100070.09
2023-07-27T08:19:12.820Z,100076.97
2023-07-27T08:21:43.874Z,100052.84
2023-07-27T08:24:11.949Z,100037.09
2023-07-27T08:26:40.081Z,100063.56
2023-07-27T08:29:08.130Z,100055.53
2023-07-27T08:31:36.105Z,100049.31
2023-07-27T08:34:04.156Z,100041.16
2023-07-27T08:36:34.341Z,100045.44
2023-07-27T08:39:02.517Z,100046.09
2023-07-27T08:41:31.147Z,100012.03
2023-07-27T08:43:59.908Z,100020.28
2023-07-27T08:46:32.009Z,100027.44
2023-07-27T08:49:01.442Z,100029.25
2023-07-27T08:51:32.095Z,100013.63
2023-07-27T08:54:01.518Z,100022.28
2023-07-27T08:56:30.579Z,100007.91
2023-07-27T08:58:58.788Z,99993.78
2023-07-27T09:01:27.471Z,99970.00
2023-07-27T09:03:55.531Z,100002.19
2023-07-27T09:06:38.879Z,99988.78
2023-07-27T09:09:19.390Z,99990.72
2023-07-27T09:11:48.065Z,99987.22
2023-07-27T09:14:17.865Z,99982.22
2023-07-27T09:16:46.514Z,99988.97
2023-07-27T09:19:14.905Z,99989.47
2023-07-27T09:21:45.655Z,99975.56
2023-07-27T09:24:14.754Z,99980.94
2023-07-27T09:26:48.881Z,99972.44
2023-07-27T09:29:18.104Z,99960.84
2023-07-27T09:31:47.916Z,99977.16
2023-07-27T09:34:16.304Z,99962.50
2023-07-27T09:36:44.889Z,99980.25
2023-07-27T09:39:14.555Z,99987.03
2023-07-27T09:41:44.792Z,99982.09
2023-07-27T09:44:16.276Z,99975.75
2023-07-27T09:46:45.991Z,99959.56
2023-07-27T09:49:14.963Z,99958.75
2023-07-27T09:51:48.025Z,99968.69
2023-07-27T09:54:16.322Z,99976.22
2023-07-27T09:56:44.584Z,99971.31
2023-07-27T09:59:15.096Z,99959.16
2023-07-27T10:01:44.486Z,99960.28
2023-07-27T10:04:15.109Z,99950.13
2023-07-27T10:06:43.888Z,99950.75
2023-07-27T10:09:21.530Z,99959.63
2023-07-27T10:11:57.182Z,99950.78
2023-07-27T10:14:27.579Z,99955.91
2023-07-27T10:17:01.311Z,99948.84
2023-07-27T10:19:41.087Z,99921.00
2023-07-27T10:22:09.956Z,99941.78
2023-07-27T10:24:51.742Z,99905.38
2023-07-27T10:27:20.411Z,99940.47
2023-07-27T10:29:50.180Z,99913.28
2023-07-27T10:32:19.772Z,99928.47
2023-07-27T10:34:52.768Z,99923.22
2023-07-27T10:37:20.959Z,99914.31
2023-07-27T10:39:51.893Z,99913.34
2023-07-27T10:42:21.548Z,99908.56
2023-07-27T10:44:51.276Z,99886.56
2023-07-27T10:47:23.391Z,99900.66
2023-07-27T10:49:53.331Z,99893.16
2023-07-27T10:52:23.367Z,99901.94
2023-07-27T10:54:53.284Z,99905.34
2023-07-27T10:57:22.781Z,99898.69
2023-07-27T10:59:52.603Z,99861.91
2023-07-27T11:02:24.437Z,99884.13
2023-07-27T11:04:53.863Z,99870.34
2023-07-27T11:07:30.114Z,99861.91
2023-07-27T11:09:59.055Z,99852.06
2023-07-27T11:12:29.400Z,99880.00
2023-07-27T11:14:59.247Z,99884.69
2023-07-27T11:17:29.291Z,99876.66
2023-07-27T11:19:58.362Z,99846.66
2023-07-27T11:22:26.430Z,99861.66
2023-07-27T11:24:54.636Z,99857.47
2023-07-27T11:27:23.021Z,99815.56
2023-07-27T11:29:52.622Z,99852.34
2023-07-27T11:32:27.689Z,99832.91
2023-07-27T11:34:57.502Z,99844.53
2023-07-27T11:37:28.368Z,99851.03
2023-07-27T11:39:56.573Z,99812.88
2023-07-27T11:42:29.259Z,99812.66
2023-07-27T11:45:01.555Z,99834.38
2023-07-27T11:47:38.765Z,99812.16
2023-07-27T11:50:10.917Z,99834.50
2023-07-27T11:52:39.864Z,99824.75
2023-07-27T11:55:08.997Z,99810.56
2023-07-27T11:57:37.436Z,99838.34
2023-07-27T12:00:13.523Z,99796.03
2023-07-27T12:02:45.713Z,99816.91
2023-07-27T12:05:19.683Z,99798.38
2023-07-27T12:10:31.383Z,99820.41
2023-07-27T12:15:33.039Z,99798.47
2023-07-27T12:18:03.319Z,99802.53
2023-07-27T12:25:39.704Z,99813.69
2023-07-27T12:30:43.907Z,99808.06
2023-07-27T12:33:12.681Z,99807.84
2023-07-27T12:35:42.365Z,99802.13
2023-07-27T12:43:12.840Z,99802.88
2023-07-27T12:45:41.409Z,99779.97
2023-07-27T12:48:09.596Z,99800.06
2023-07-27T12:50:37.706Z,99777.66
2023-07-27T12:53:10.322Z,99777.75
2023-07-27T12:55:38.866Z,99774.09
2023-07-27T12:58:06.902Z,99772.66
2023-07-27T13:00:34.902Z,99774.97
2023-07-27T13:03:03.021Z,99760.44
2023-07-27T13:05:31.267Z,99761.66
2023-07-27T13:07:59.321Z,99755.56
2023-07-27T13:10:28.781Z,99769.84
2023-07-27T13:12:56.820Z,99761.16
2023-07-27T13:15:24.966Z,99751.56
2023-07-27T13:17:54.004Z,99761.19
2023-07-27T13:20:22.473Z,99762.03
2023-07-27T13:22:50.480Z,99753.34
2023-07-27T13:25:18.452Z,99756.63
2023-07-27T13:27:48.422Z,99755.50
2023-07-27T13:30:16.521Z,99733.16
2023-07-27T13:32:44.615Z,99746.94
2023-07-27T13:35:12.694Z,99750.88
2023-07-27T13:37:41.414Z,99738.19
2023-07-27T13:40:10.178Z,99743.50
2023-07-27T13:42:42.372Z,99744.97
2023-07-27T13:45:12.125Z,99738.63
2023-07-27T13:47:47.361Z,99741.44
2023-07-27T13:50:21.672Z,99743.09
2023-07-27T13:52:49.671Z,99744.81
2023-07-27T13:55:18.858Z,99731.25
2023-07-27T13:57:46.865Z,99745.31
2023-07-27T14:00:17.428Z,99746.41
2023-07-27T14:02:45.506Z,99750.13
2023-07-27T14:05:14.340Z,99728.63
2023-07-27T14:07:42.503Z,99720.34
2023-07-27T14:10:10.835Z,99733.50
2023-07-27T14:12:38.976Z,99722.22
2023-07-27T14:15:08.050Z,99726.63
2023-07-27T14:17:38.074Z,99727.09
2023-07-27T14:20:07.837Z,99723.00
2023-07-27T14:22:36.683Z,99738.84
2023-07-27T14:25:05.460Z,99733.03
2023-07-27T14:30:05.618Z,99721.44
2023-07-27T14:32:33.670Z,99746.00
2023-07-27T14:35:03.381Z,99743.66
2023-07-27T14:37:31.599Z,99735.47
2023-07-27T14:40:02.271Z,99726.09
2023-07-27T14:42:31.234Z,99742.16
2023-07-27T14:44:59.436Z,99741.44
2023-07-27T14:47:28.313Z,99732.00
2023-07-27T14:49:57.982Z,99734.84
2023-07-27T14:52:33.231Z,99731.47
2023-07-27T14:55:02.062Z,99666.50
2023-07-27T14:57:30.107Z,99710.84
2023-07-27T15:02:45.374Z,99693.06
2023-07-27T15:05:14.208Z,99725.41
2023-07-27T15:07:43.738Z,99728.22
2023-07-27T15:10:29.280Z,99727.63
2023-07-27T15:13:00.366Z,99690.25
2023-07-27T15:15:29.286Z,99717.53
2023-07-27T15:17:57.437Z,99702.63
2023-07-27T15:20:25.770Z,99723.69
2023-07-27T15:22:55.416Z,99707.56
2023-07-27T15:25:23.375Z,99704.81
2023-07-27T15:27:51.412Z,99695.84
2023-07-27T15:30:19.409Z,99679.22
2023-07-27T15:32:47.431Z,99679.19
2023-07-27T15:35:15.702Z,99683.03
2023-07-27T15:37:43.671Z,99707.69
2023-07-27T15:40:13.647Z,99706.94
2023-07-27T15:42:41.718Z,99687.03
2023-07-27T15:45:10.789Z,99698.25
2023-07-27T15:47:38.853Z,99672.56
2023-07-27T15:50:08.998Z,99686.59
2023-07-27T15:52:41.728Z,99696.53
2023-07-27T15:55:10.678Z,99685.59
2023-07-27T15:57:40.332Z,99671.53
2023-07-27T16:00:09.259Z,99693.06
2023-07-27T16:02:37.347Z,99688.88
2023-07-27T16:05:06.428Z,99677.53
2023-07-27T16:07:34.457Z,99678.91
2023-07-27T16:10:03.070Z,99677.19
2023-07-27T16:12:31.259Z,99648.16
2023-07-27T16:15:00.776Z,99677.03
2023-07-27T16:17:29.071Z,99670.19
2023-07-27T16:19:57.455Z,99673.31
2023-07-27T16:22:25.694Z,99671.50
2023-07-27T16:24:54.435Z,99675.03
2023-07-27T16:27:23.033Z,99675.03
2023-07-27T16:29:51.200Z,99669.94
2023-07-27T16:32:20.867Z,99670.63
2023-07-27T16:34:48.828Z,99671.66
2023-07-27T16:37:16.949Z,99648.66
2023-07-27T16:39:44.892Z,99639.56
2023-07-27T16:42:12.851Z,99654.78
2023-07-27T16:44:41.097Z,99659.19
2023-07-27T16:47:09.127Z,99654.97
2023-07-27T16:49:38.431Z,99662.19
2023-07-27T16:52:07.377Z,99654.50
2023-07-27T16:54:35.423Z,99656.34
2023-07-27T16:57:03.404Z,99656.94
2023-07-27T16:59:31.502Z,99653.66
2023-07-27T17:01:59.720Z,99656.94
2023-07-27T17:04:28.187Z,99648.28
2023-07-27T17:06:57.574Z,99667.16
2023-07-27T17:09:25.828Z,99663.75
2023-07-27T17:11:54.041Z,99656.94
2023-07-27T17:14:22.252Z,99648.44
2023-07-27T17:16:50.437Z,99656.50
2023-07-27T17:19:18.425Z,99642.97
2023-07-27T17:21:46.409Z,99662.56
2023-07-27T17:24:15.776Z,99632.03
2023-07-27T17:26:43.741Z,99665.78
2023-07-27T17:29:11.865Z,99666.66
2023-07-27T17:31:39.872Z,99643.41
2023-07-27T17:34:08.263Z,99650.78
2023-07-27T17:36:36.445Z,99647.63
2023-07-27T17:39:06.398Z,99651.06
2023-07-27T17:41:37.520Z,99640.44
2023-07-27T17:44:06.818Z,99644.81
2023-07-27T17:46:35.309Z,99641.03
2023-07-27T17:49:03.294Z,99632.09
2023-07-27T17:51:32.928Z,99629.88
2023-07-27T17:54:01.165Z,99638.78
2023-07-27T17:56:29.161Z,99634.50
2023-07-27T17:58:59.551Z,99631.38
2023-07-27T18:01:27.748Z,99650.63
2023-07-27T18:03:57.702Z,99633.81
2023-07-27T18:06:26.414Z,99639.06
2023-07-27T18:08:56.106Z,99647.81
2023-07-27T18:11:24.126Z,99612.41
2023-07-27T18:13:52.118Z,99633.09
2023-07-27T18:16:21.893Z,99638.22
2023-07-27T18:18:50.117Z,99654.06
2023-07-27T18:21:18.518Z,99636.38
2023-07-27T18:23:48.840Z,99627.72
2023-07-27T18:26:17.964Z,99645.59
2023-07-27T18:28:46.098Z,99633.72
2023-07-27T18:31:14.192Z,99638.66
2023-07-27T18:33:43.512Z,99644.47
2023-07-27T18:36:14.326Z,99646.44
2023-07-27T18:38:44.494Z,99642.78
2023-07-27T18:41:14.708Z,99649.72
2023-07-27T18:43:42.950Z,99646.06
2023-07-27T18:46:11.344Z,99639.09
2023-07-27T18:48:39.342Z,99637.13
2023-07-27T18:51:08.895Z,99632.31
2023-07-27T18:53:37.232Z,99627.47
2023-07-27T18:56:05.928Z,99636.84
2023-07-27T18:58:35.187Z,99622.66
2023-07-27T19:01:07.406Z,99627.38
2023-07-27T19:03:38.242Z,99630.91
2023-07-27T19:06:06.485Z,99636.84
2023-07-27T19:08:35.932Z,99635.16
2023-07-27T19:11:04.858Z,99645.91
2023-07-27T19:13:33.709Z,99657.81
2023-07-27T19:16:03.204Z,99626.63
2023-07-27T19:18:31.392Z,99640.41
2023-07-27T19:20:59.443Z,99615.84
2023-07-27T19:23:27.487Z,99631.81
2023-07-27T19:25:56.919Z,99627.19
2023-07-27T19:28:25.060Z,99649.19
2023-07-27T19:30:53.199Z,99642.22
2023-07-27T19:33:21.219Z,99642.97
2023-07-27T19:35:50.619Z,99636.31
2023-07-27T19:38:18.630Z,99641.44
2023-07-27T19:40:46.613Z,99650.78
2023-07-27T19:43:16.000Z,99648.44
2023-07-27T19:45:44.104Z,99617.25
2023-07-27T19:48:15.192Z,99657.19
2023-07-27T19:50:43.272Z,99656.94
2023-07-27T19:53:11.227Z,99639.63
2023-07-27T19:55:39.273Z,99638.66
2023-07-27T19:58:07.283Z,99605.69
2023-07-27T20:00:36.625Z,99626.28
2023-07-27T20:03:05.139Z,99650.13
2023-07-27T20:05:33.339Z,99651.25
2023-07-27T20:08:01.753Z,99639.31
2023-07-27T20:10:29.791Z,99628.53
2023-07-27T20:12:57.852Z,99661.41
2023-07-27T20:15:25.851Z,99636.97
2023-07-27T20:17:55.223Z,99659.31
2023-07-27T20:20:23.157Z,99664.81
2023-07-27T20:22:51.146Z,99647.25
2023-07-27T20:25:19.085Z,99661.88
2023-07-27T20:27:49.967Z,99636.31
2023-07-27T20:30:17.890Z,99660.16
2023-07-27T20:32:45.925Z,99658.25
2023-07-27T20:35:15.484Z,99659.44
2023-07-27T20:37:43.645Z,99642.94
2023-07-27T20:40:12.637Z,99663.97
2023-07-27T20:42:40.636Z,99659.97
2023-07-27T20:45:10.281Z,99672.03
2023-07-27T20:47:38.496Z,99661.88
2023-07-27T20:50:10.484Z,99646.41
2023-07-27T20:52:40.019Z,99669.94
2023-07-27T20:55:08.779Z,99655.03
2023-07-27T20:57:36.752Z,99662.72
2023-07-27T21:00:06.884Z,99642.25
2023-07-27T21:02:34.919Z,99663.25
2023-07-27T21:05:02.959Z,99655.97
2023-07-27T21:07:31.059Z,99652.63
2023-07-27T21:10:00.396Z,99593.41
2023-07-27T21:12:28.748Z,99668.47
2023-07-27T21:14:56.704Z,99666.78
2023-07-27T21:17:24.807Z,99658.88
2023-07-27T21:19:52.814Z,99653.41
2023-07-27T21:22:20.867Z,99639.72
2023-07-27T21:24:48.898Z,99655.31
2023-07-27T21:27:18.416Z,99656.56
2023-07-27T21:29:46.357Z,99642.09
2023-07-27T21:32:14.408Z,99646.34
2023-07-27T21:34:42.573Z,99651.47
2023-07-27T21:37:10.556Z,99662.22
2023-07-27T21:39:38.646Z,99659.25
2023-07-27T21:42:07.131Z,99658.25
2023-07-27T21:44:36.429Z,99653.41
2023-07-27T21:47:04.517Z,99665.03
2023-07-27T21:49:32.549Z,99666.31
2023-07-27T21:52:00.628Z,99665.34
2023-07-27T21:54:28.964Z,99662.41
2023-07-27T21:56:57.029Z,99661.69
2023-07-27T21:59:25.087Z,99655.69
2023-07-27T22:01:54.414Z,99649.44
2023-07-27T22:04:22.573Z,99660.50
2023-07-27T22:06:50.614Z,99657.56
2023-07-27T22:09:18.600Z,99653.69
2023-07-27T22:11:46.588Z,99641.66
2023-07-27T22:14:14.568Z,99646.88
2023-07-27T22:16:42.503Z,99654.72
2023-07-27T22:19:11.869Z,99669.53
2023-07-27T22:21:39.810Z,99660.50
2023-07-27T22:24:08.083Z,99650.53
2023-07-27T22:26:36.326Z,99667.84
2023-07-27T22:29:04.508Z,99661.59
2023-07-27T22:31:35.430Z,99662.34
2023-07-27T22:34:03.365Z,99629.25
2023-07-27T22:36:32.960Z,99665.03
2023-07-27T22:39:01.179Z,99669.81
2023-07-27T22:41:29.157Z,99680.56
2023-07-27T22:43:57.064Z,99662.97
2023-07-27T22:46:25.013Z,99677.28
2023-07-27T22:48:53.272Z,99656.38
2023-07-27T22:51:21.565Z,99651.25
2023-07-27T22:53:51.386Z,99667.66
2023-07-27T22:56:19.476Z,99654.75
2023-07-27T22:58:47.411Z,99664.97
2023-07-27T23:01:17.799Z,99661.56
2023-07-27T23:03:45.904Z,99652.75
2023-07-27T23:06:13.879Z,99644.97
2023-07-27T23:08:41.859Z,99653.38
2023-07-27T23:11:11.219Z,99641.03
2023-07-27T23:13:39.204Z,99655.91
2023-07-27T23:16:14.748Z,99642.00
2023-07-27T23:18:42.719Z,99654.69
2023-07-27T23:21:10.736Z,99645.88
2023-07-27T23:23:38.742Z,99648.56
2023-07-27T23:26:06.727Z,99660.28
2023-07-27T23:28:36.114Z,99657.59
2023-07-27T23:31:04.222Z,99657.38
2023-07-27T23:33:32.224Z,99649.09
2023-07-27T23:36:00.250Z,99651.25
2023-07-27T23:38:28.215Z,99630.81
2023-07-27T23:40:56.160Z,99657.81
2023-07-27T23:43:24.116Z,99658.09
2023-07-27T23:45:53.448Z,99648.53
2023-07-27T23:48:21.384Z,99662.47
2023-07-27T23:50:49.377Z,99665.31
2023-07-27T23:53:17.355Z,99665.03
2023-07-27T23:55:45.354Z,99647.16
2023-07-27T23:58:13.363Z,99653.09
